sensor_id;sensor_type;location;lat;lon;timestamp;temperature;humidity
14755;DHT22;7469;50.906;6.952;2023-05-18T00:00:10;9.80;48.80
14755;DHT22;7469;50.906;6.952;2023-05-18T00:02:41;9.80;49.20
14755;DHT22;7469;50.906;6.952;2023-05-18T00:05:09;9.80;49.60
14755;DHT22;7469;50.906;6.952;2023-05-18T00:07:37;9.80;49.90
14755;DHT22;7469;50.906;6.952;2023-05-18T00:10:09;9.70;50.20
14755;DHT22;7469;50.906;6.952;2023-05-18T00:12:37;9.70;50.60
14755;DHT22;7469;50.906;6.952;2023-05-18T00:15:06;9.70;50.90
14755;DHT22;7469;50.906;6.952;2023-05-18T00:17:34;9.60;51.10
14755;DHT22;7469;50.906;6.952;2023-05-18T00:20:03;9.60;51.50
14755;DHT22;7469;50.906;6.952;2023-05-18T00:22:32;9.60;51.90
14755;DHT22;7469;50.906;6.952;2023-05-18T00:25:00;9.60;52.30
14755;DHT22;7469;50.906;6.952;2023-05-18T00:27:29;9.50;52.60
14755;DHT22;7469;50.906;6.952;2023-05-18T00:29:58;9.50;52.90
14755;DHT22;7469;50.906;6.952;2023-05-18T00:32:26;9.50;53.40
14755;DHT22;7469;50.906;6.952;2023-05-18T00:34:54;9.40;53.60
14755;DHT22;7469;50.906;6.952;2023-05-18T00:37:22;9.40;54.00
14755;DHT22;7469;50.906;6.952;2023-05-18T00:39:50;9.40;54.30
14755;DHT22;7469;50.906;6.952;2023-05-18T00:42:18;9.40;54.70
14755;DHT22;7469;50.906;6.952;2023-05-18T00:44:47;9.30;55.10
14755;DHT22;7469;50.906;6.952;2023-05-18T00:47:16;9.30;55.40
14755;DHT22;7469;50.906;6.952;2023-05-18T00:49:47;9.30;56.10
14755;DHT22;7469;50.906;6.952;2023-05-18T00:52:15;9.20;56.40
14755;DHT22;7469;50.906;6.952;2023-05-18T00:54:43;9.20;56.90
14755;DHT22;7469;50.906;6.952;2023-05-18T00:57:11;9.20;57.30
14755;DHT22;7469;50.906;6.952;2023-05-18T00:59:39;9.20;57.80
14755;DHT22;7469;50.906;6.952;2023-05-18T01:02:09;9.10;58.40
14755;DHT22;7469;50.906;6.952;2023-05-18T01:04:38;9.00;58.90
14755;DHT22;7469;50.906;6.952;2023-05-18T01:07:07;9.00;59.40
14755;DHT22;7469;50.906;6.952;2023-05-18T01:09:36;9.00;60.10
14755;DHT22;7469;50.906;6.952;2023-05-18T01:12:09;8.90;60.90
14755;DHT22;7469;50.906;6.952;2023-05-18T01:14:43;8.90;61.90
14755;DHT22;7469;50.906;6.952;2023-05-18T01:17:24;8.80;62.60
14755;DHT22;7469;50.906;6.952;2023-05-18T01:20:06;8.80;63.10
14755;DHT22;7469;50.906;6.952;2023-05-18T01:22:49;8.80;63.80
14755;DHT22;7469;50.906;6.952;2023-05-18T01:25:33;8.80;64.40
14755;DHT22;7469;50.906;6.952;2023-05-18T01:28:07;8.70;65.10
14755;DHT22;7469;50.906;6.952;2023-05-18T01:30:40;8.70;65.80
14755;DHT22;7469;50.906;6.952;2023-05-18T01:33:08;8.60;66.70
14755;DHT22;7469;50.906;6.952;2023-05-18T01:35:38;8.60;67.50
14755;DHT22;7469;50.906;6.952;2023-05-18T01:38:07;8.60;68.10
14755;DHT22;7469;50.906;6.952;2023-05-18T01:40:40;8.50;68.90
14755;DHT22;7469;50.906;6.952;2023-05-18T01:43:15;8.50;70.00
14755;DHT22;7469;50.906;6.952;2023-05-18T01:45:45;8.40;71.00
14755;DHT22;7469;50.906;6.952;2023-05-18T01:48:17;8.40;72.10
14755;DHT22;7469;50.906;6.952;2023-05-18T01:50:47;8.30;72.70
14755;DHT22;7469;50.906;6.952;2023-05-18T01:53:23;8.30;73.10
14755;DHT22;7469;50.906;6.952;2023-05-18T01:55:53;8.20;73.70
14755;DHT22;7469;50.906;6.952;2023-05-18T01:58:23;8.20;74.50
14755;DHT22;7469;50.906;6.952;2023-05-18T02:00:52;8.10;75.10
14755;DHT22;7469;50.906;6.952;2023-05-18T02:03:20;8.10;75.90
14755;DHT22;7469;50.906;6.952;2023-05-18T02:05:49;8.10;76.60
14755;DHT22;7469;50.906;6.952;2023-05-18T02:08:17;8.00;77.20
14755;DHT22;7469;50.906;6.952;2023-05-18T02:10:44;8.00;77.90
14755;DHT22;7469;50.906;6.952;2023-05-18T02:13:12;8.00;78.60
14755;DHT22;7469;50.906;6.952;2023-05-18T02:15:42;8.00;79.20
14755;DHT22;7469;50.906;6.952;2023-05-18T02:18:10;7.90;80.20
14755;DHT22;7469;50.906;6.952;2023-05-18T02:20:38;7.90;80.70
14755;DHT22;7469;50.906;6.952;2023-05-18T02:23:06;7.90;81.50
14755;DHT22;7469;50.906;6.952;2023-05-18T02:25:34;7.80;82.00
14755;DHT22;7469;50.906;6.952;2023-05-18T02:28:03;7.80;83.10
14755;DHT22;7469;50.906;6.952;2023-05-18T02:30:31;7.80;84.00
14755;DHT22;7469;50.906;6.952;2023-05-18T02:33:01;7.70;84.90
14755;DHT22;7469;50.906;6.952;2023-05-18T02:35:30;7.70;85.50
14755;DHT22;7469;50.906;6.952;2023-05-18T02:37:58;7.70;86.40
14755;DHT22;7469;50.906;6.952;2023-05-18T02:40:26;7.60;87.00
14755;DHT22;7469;50.906;6.952;2023-05-18T02:42:54;7.60;87.90
14755;DHT22;7469;50.906;6.952;2023-05-18T02:45:22;7.60;88.80
14755;DHT22;7469;50.906;6.952;2023-05-18T02:47:50;7.60;89.80
14755;DHT22;7469;50.906;6.952;2023-05-18T02:50:20;7.50;90.30
14755;DHT22;7469;50.906;6.952;2023-05-18T02:52:48;7.50;90.60
14755;DHT22;7469;50.906;6.952;2023-05-18T02:55:17;7.50;91.10
14755;DHT22;7469;50.906;6.952;2023-05-18T02:57:45;7.40;91.70
14755;DHT22;7469;50.906;6.952;2023-05-18T03:00:14;7.40;92.00
14755;DHT22;7469;50.906;6.952;2023-05-18T03:02:43;7.40;92.30
14755;DHT22;7469;50.906;6.952;2023-05-18T03:05:14;7.40;93.00
14755;DHT22;7469;50.906;6.952;2023-05-18T03:07:45;7.30;93.30
14755;DHT22;7469;50.906;6.952;2023-05-18T03:10:16;7.30;93.60
14755;DHT22;7469;50.906;6.952;2023-05-18T03:12:45;7.20;94.40
14755;DHT22;7469;50.906;6.952;2023-05-18T03:15:13;7.20;94.40
14755;DHT22;7469;50.906;6.952;2023-05-18T03:17:41;7.20;94.80
14755;DHT22;7469;50.906;6.952;2023-05-18T03:20:11;7.20;95.30
14755;DHT22;7469;50.906;6.952;2023-05-18T03:22:40;7.20;95.60
14755;DHT22;7469;50.906;6.952;2023-05-18T03:25:09;7.10;96.00
14755;DHT22;7469;50.906;6.952;2023-05-18T03:27:37;7.10;96.40
14755;DHT22;7469;50.906;6.952;2023-05-18T03:30:07;7.10;96.80
14755;DHT22;7469;50.906;6.952;2023-05-18T03:32:35;7.10;97.10
14755;DHT22;7469;50.906;6.952;2023-05-18T03:35:04;7.00;97.30
14755;DHT22;7469;50.906;6.952;2023-05-18T03:37:32;7.00;97.60
14755;DHT22;7469;50.906;6.952;2023-05-18T03:40:10;7.00;98.00
14755;DHT22;7469;50.906;6.952;2023-05-18T03:42:38;7.00;98.50
14755;DHT22;7469;50.906;6.952;2023-05-18T03:45:07;7.00;98.80
14755;DHT22;7469;50.906;6.952;2023-05-18T03:47:36;7.00;99.20
14755;DHT22;7469;50.906;6.952;2023-05-18T03:50:05;6.90;99.60
14755;DHT22;7469;50.906;6.952;2023-05-18T03:52:34;6.90;99.90
14755;DHT22;7469;50.906;6.952;2023-05-18T03:55:03;6.90;99.90
14755;DHT22;7469;50.906;6.952;2023-05-18T03:57:33;6.90;99.90
14755;DHT22;7469;50.906;6.952;2023-05-18T04:00:02;6.90;99.90
14755;DHT22;7469;50.906;6.952;2023-05-18T04:02:34;6.90;99.90
14755;DHT22;7469;50.906;6.952;2023-05-18T04:05:03;6.90;99.90
14755;DHT22;7469;50.906;6.952;2023-05-18T04:07:31;6.90;99.90
14755;DHT22;7469;50.906;6.952;2023-05-18T04:09:59;6.90;99.90
14755;DHT22;7469;50.906;6.952;2023-05-18T04:12:27;6.90;99.90
14755;DHT22;7469;50.906;6.952;2023-05-18T04:14:57;6.90;99.90
14755;DHT22;7469;50.906;6.952;2023-05-18T04:17:25;6.90;99.90
14755;DHT22;7469;50.906;6.952;2023-05-18T04:19:53;6.90;99.90
14755;DHT22;7469;50.906;6.952;2023-05-18T04:22:21;6.90;99.90
14755;DHT22;7469;50.906;6.952;2023-05-18T04:24:49;6.90;99.90
14755;DHT22;7469;50.906;6.952;2023-05-18T04:27:20;7.00;99.90
14755;DHT22;7469;50.906;6.952;2023-05-18T04:29:48;7.00;99.90
14755;DHT22;7469;50.906;6.952;2023-05-18T04:32:19;7.00;99.90
14755;DHT22;7469;50.906;6.952;2023-05-18T04:34:47;7.00;99.90
14755;DHT22;7469;50.906;6.952;2023-05-18T04:37:16;7.10;99.90
14755;DHT22;7469;50.906;6.952;2023-05-18T04:39:45;7.10;99.90
14755;DHT22;7469;50.906;6.952;2023-05-18T04:42:13;7.10;99.90
14755;DHT22;7469;50.906;6.952;2023-05-18T04:44:44;7.20;99.90
14755;DHT22;7469;50.906;6.952;2023-05-18T04:47:14;7.20;99.90
14755;DHT22;7469;50.906;6.952;2023-05-18T04:49:44;7.30;99.90
14755;DHT22;7469;50.906;6.952;2023-05-18T04:52:12;7.30;99.90
14755;DHT22;7469;50.906;6.952;2023-05-18T04:54:40;7.40;99.90
14755;DHT22;7469;50.906;6.952;2023-05-18T04:57:08;7.40;99.90
14755;DHT22;7469;50.906;6.952;2023-05-18T04:59:37;7.50;99.90
14755;DHT22;7469;50.906;6.952;2023-05-18T05:02:05;7.60;99.90
14755;DHT22;7469;50.906;6.952;2023-05-18T05:04:33;7.60;99.90
14755;DHT22;7469;50.906;6.952;2023-05-18T05:07:04;7.70;99.90
14755;DHT22;7469;50.906;6.952;2023-05-18T05:09:32;7.80;99.90
14755;DHT22;7469;50.906;6.952;2023-05-18T05:12:01;7.80;99.90
14755;DHT22;7469;50.906;6.952;2023-05-18T05:14:30;8.00;99.90
14755;DHT22;7469;50.906;6.952;2023-05-18T05:16:58;8.10;99.90
14755;DHT22;7469;50.906;6.952;2023-05-18T05:19:26;8.10;99.90
14755;DHT22;7469;50.906;6.952;2023-05-18T05:21:54;8.20;99.90
14755;DHT22;7469;50.906;6.952;2023-05-18T05:24:23;8.30;99.90
14755;DHT22;7469;50.906;6.952;2023-05-18T05:26:51;8.40;99.90
14755;DHT22;7469;50.906;6.952;2023-05-18T05:29:19;8.50;99.90
14755;DHT22;7469;50.906;6.952;2023-05-18T05:31:47;8.70;99.90
14755;DHT22;7469;50.906;6.952;2023-05-18T05:34:15;8.70;99.90
14755;DHT22;7469;50.906;6.952;2023-05-18T05:36:43;8.80;99.90
14755;DHT22;7469;50.906;6.952;2023-05-18T05:39:11;9.00;99.90
14755;DHT22;7469;50.906;6.952;2023-05-18T05:41:41;9.00;99.90
14755;DHT22;7469;50.906;6.952;2023-05-18T05:44:09;9.10;99.90
14755;DHT22;7469;50.906;6.952;2023-05-18T05:46:37;9.20;99.90
14755;DHT22;7469;50.906;6.952;2023-05-18T05:49:05;9.30;99.90
14755;DHT22;7469;50.906;6.952;2023-05-18T05:51:33;9.40;99.90
14755;DHT22;7469;50.906;6.952;2023-05-18T05:54:01;9.50;99.90
14755;DHT22;7469;50.906;6.952;2023-05-18T05:56:29;9.50;99.90
14755;DHT22;7469;50.906;6.952;2023-05-18T05:59:01;9.60;99.90
14755;DHT22;7469;50.906;6.952;2023-05-18T06:01:29;9.70;99.90
14755;DHT22;7469;50.906;6.952;2023-05-18T06:03:58;9.80;99.90
14755;DHT22;7469;50.906;6.952;2023-05-18T06:06:27;9.80;99.90
14755;DHT22;7469;50.906;6.952;2023-05-18T06:08:55;9.90;99.90
14755;DHT22;7469;50.906;6.952;2023-05-18T06:11:23;10.00;99.90
14755;DHT22;7469;50.906;6.952;2023-05-18T06:13:51;10.00;99.90
14755;DHT22;7469;50.906;6.952;2023-05-18T06:16:20;10.10;99.90
14755;DHT22;7469;50.906;6.952;2023-05-18T06:18:48;10.20;99.70
14755;DHT22;7469;50.906;6.952;2023-05-18T06:21:16;10.20;99.50
14755;DHT22;7469;50.906;6.952;2023-05-18T06:23:44;10.30;99.20
14755;DHT22;7469;50.906;6.952;2023-05-18T06:26:12;10.40;98.90
14755;DHT22;7469;50.906;6.952;2023-05-18T06:28:40;10.40;98.70
14755;DHT22;7469;50.906;6.952;2023-05-18T06:31:08;10.60;98.50
14755;DHT22;7469;50.906;6.952;2023-05-18T06:33:37;10.50;98.20
14755;DHT22;7469;50.906;6.952;2023-05-18T06:36:05;10.70;98.00
14755;DHT22;7469;50.906;6.952;2023-05-18T06:38:33;10.70;97.70
14755;DHT22;7469;50.906;6.952;2023-05-18T06:41:01;10.70;97.50
14755;DHT22;7469;50.906;6.952;2023-05-18T06:43:29;10.80;97.20
14755;DHT22;7469;50.906;6.952;2023-05-18T06:45:57;10.80;96.90
14755;DHT22;7469;50.906;6.952;2023-05-18T06:48:27;10.80;96.70
14755;DHT22;7469;50.906;6.952;2023-05-18T06:50:57;10.90;96.70
14755;DHT22;7469;50.906;6.952;2023-05-18T06:53:25;10.90;96.50
14755;DHT22;7469;50.906;6.952;2023-05-18T06:55:53;10.90;96.20
14755;DHT22;7469;50.906;6.952;2023-05-18T06:58:21;11.00;96.10
14755;DHT22;7469;50.906;6.952;2023-05-18T07:00:49;11.00;95.90
14755;DHT22;7469;50.906;6.952;2023-05-18T07:03:19;11.10;95.60
14755;DHT22;7469;50.906;6.952;2023-05-18T07:05:47;11.20;95.40
14755;DHT22;7469;50.906;6.952;2023-05-18T07:08:17;11.20;95.30
14755;DHT22;7469;50.906;6.952;2023-05-18T07:10:45;11.30;95.20
14755;DHT22;7469;50.906;6.952;2023-05-18T07:13:13;11.40;95.10
14755;DHT22;7469;50.906;6.952;2023-05-18T07:15:41;11.50;94.80
14755;DHT22;7469;50.906;6.952;2023-05-18T07:18:09;11.50;94.70
14755;DHT22;7469;50.906;6.952;2023-05-18T07:20:37;11.60;94.50
14755;DHT22;7469;50.906;6.952;2023-05-18T07:23:05;11.70;94.30
14755;DHT22;7469;50.906;6.952;2023-05-18T07:25:36;11.70;94.10
14755;DHT22;7469;50.906;6.952;2023-05-18T07:28:04;11.80;94.00
14755;DHT22;7469;50.906;6.952;2023-05-18T07:30:32;11.80;93.60
14755;DHT22;7469;50.906;6.952;2023-05-18T07:33:00;11.90;93.60
14755;DHT22;7469;50.906;6.952;2023-05-18T07:35:29;11.90;93.50
14755;DHT22;7469;50.906;6.952;2023-05-18T07:37:58;12.00;93.30
14755;DHT22;7469;50.906;6.952;2023-05-18T07:40:26;12.10;93.50
14755;DHT22;7469;50.906;6.952;2023-05-18T07:42:55;12.20;92.90
14755;DHT22;7469;50.906;6.952;2023-05-18T07:45:24;12.30;92.60
14755;DHT22;7469;50.906;6.952;2023-05-18T07:47:52;12.40;92.50
14755;DHT22;7469;50.906;6.952;2023-05-18T07:50:21;12.50;92.20
14755;DHT22;7469;50.906;6.952;2023-05-18T07:52:49;12.50;92.00
14755;DHT22;7469;50.906;6.952;2023-05-18T07:55:17;12.60;91.90
14755;DHT22;7469;50.906;6.952;2023-05-18T07:57:45;12.60;91.70
14755;DHT22;7469;50.906;6.952;2023-05-18T08:00:16;12.70;91.40
14755;DHT22;7469;50.906;6.952;2023-05-18T08:02:44;12.70;91.00
14755;DHT22;7469;50.906;6.952;2023-05-18T08:05:13;12.80;90.80
14755;DHT22;7469;50.906;6.952;2023-05-18T08:07:41;12.90;90.60
14755;DHT22;7469;50.906;6.952;2023-05-18T08:10:09;12.90;90.40
14755;DHT22;7469;50.906;6.952;2023-05-18T08:12:37;13.00;90.30
14755;DHT22;7469;50.906;6.952;2023-05-18T08:15:07;13.00;90.10
14755;DHT22;7469;50.906;6.952;2023-05-18T08:17:36;13.10;89.90
14755;DHT22;7469;50.906;6.952;2023-05-18T08:20:06;13.20;89.30
14755;DHT22;7469;50.906;6.952;2023-05-18T08:22:36;13.30;89.00
14755;DHT22;7469;50.906;6.952;2023-05-18T08:25:04;13.30;88.60
14755;DHT22;7469;50.906;6.952;2023-05-18T08:27:32;13.40;88.10
14755;DHT22;7469;50.906;6.952;2023-05-18T08:30:00;13.60;87.20
14755;DHT22;7469;50.906;6.952;2023-05-18T08:32:28;13.60;86.40
14755;DHT22;7469;50.906;6.952;2023-05-18T08:34:57;13.70;86.30
14755;DHT22;7469;50.906;6.952;2023-05-18T08:37:26;13.80;85.50
14755;DHT22;7469;50.906;6.952;2023-05-18T08:39:55;13.90;85.00
14755;DHT22;7469;50.906;6.952;2023-05-18T08:42:28;14.00;84.50
14755;DHT22;7469;50.906;6.952;2023-05-18T08:45:20;14.10;83.70
14755;DHT22;7469;50.906;6.952;2023-05-18T08:47:49;14.30;83.30
14755;DHT22;7469;50.906;6.952;2023-05-18T08:50:20;14.40;83.10
14755;DHT22;7469;50.906;6.952;2023-05-18T08:52:54;14.70;82.40
14755;DHT22;7469;50.906;6.952;2023-05-18T08:55:22;15.10;81.40
14755;DHT22;7469;50.906;6.952;2023-05-18T08:57:54;15.50;79.70
14755;DHT22;7469;50.906;6.952;2023-05-18T09:00:26;15.90;79.00
14755;DHT22;7469;50.906;6.952;2023-05-18T09:02:54;16.50;78.30
14755;DHT22;7469;50.906;6.952;2023-05-18T09:05:24;17.30;76.50
14755;DHT22;7469;50.906;6.952;2023-05-18T09:07:53;18.20;71.20
14755;DHT22;7469;50.906;6.952;2023-05-18T09:10:23;19.60;65.70
14755;DHT22;7469;50.906;6.952;2023-05-18T09:12:51;21.80;58.60
14755;DHT22;7469;50.906;6.952;2023-05-18T09:15:21;24.20;49.30
14755;DHT22;7469;50.906;6.952;2023-05-18T09:17:51;26.60;39.30
14755;DHT22;7469;50.906;6.952;2023-05-18T09:20:19;28.80;30.80
14755;DHT22;7469;50.906;6.952;2023-05-18T09:22:49;30.90;25.30
14755;DHT22;7469;50.906;6.952;2023-05-18T09:25:17;32.70;20.90
14755;DHT22;7469;50.906;6.952;2023-05-18T09:27:47;34.30;17.20
14755;DHT22;7469;50.906;6.952;2023-05-18T09:30:17;35.70;14.00
14755;DHT22;7469;50.906;6.952;2023-05-18T09:32:45;36.20;11.50
14755;DHT22;7469;50.906;6.952;2023-05-18T09:35:14;37.30;10.00
14755;DHT22;7469;50.906;6.952;2023-05-18T09:37:42;38.60;8.70
14755;DHT22;7469;50.906;6.952;2023-05-18T09:40:12;39.60;7.20
14755;DHT22;7469;50.906;6.952;2023-05-18T09:42:43;40.20;5.80
14755;DHT22;7469;50.906;6.952;2023-05-18T09:45:16;40.50;4.40
14755;DHT22;7469;50.906;6.952;2023-05-18T09:47:45;39.50;4.20
14755;DHT22;7469;50.906;6.952;2023-05-18T09:50:13;39.00;4.50
14755;DHT22;7469;50.906;6.952;2023-05-18T09:52:41;39.70;4.00
14755;DHT22;7469;50.906;6.952;2023-05-18T09:55:11;40.10;3.30
14755;DHT22;7469;50.906;6.952;2023-05-18T09:57:40;39.70;3.00
14755;DHT22;7469;50.906;6.952;2023-05-18T10:00:10;39.80;2.80
14755;DHT22;7469;50.906;6.952;2023-05-18T10:02:39;40.20;2.30
14755;DHT22;7469;50.906;6.952;2023-05-18T10:05:18;40.10;2.10
14755;DHT22;7469;50.906;6.952;2023-05-18T10:07:46;38.90;2.20
14755;DHT22;7469;50.906;6.952;2023-05-18T10:10:18;38.90;2.70
14755;DHT22;7469;50.906;6.952;2023-05-18T10:12:46;38.20;2.30
14755;DHT22;7469;50.906;6.952;2023-05-18T10:15:15;36.70;2.70
14755;DHT22;7469;50.906;6.952;2023-05-18T10:17:44;35.80;3.40
14755;DHT22;7469;50.906;6.952;2023-05-18T10:20:16;36.40;3.50
14755;DHT22;7469;50.906;6.952;2023-05-18T10:22:46;37.60;3.10
14755;DHT22;7469;50.906;6.952;2023-05-18T10:25:19;39.00;2.40
14755;DHT22;7469;50.906;6.952;2023-05-18T10:27:48;40.30;1.40
14755;DHT22;7469;50.906;6.952;2023-05-18T10:30:18;41.10;1.00
14755;DHT22;7469;50.906;6.952;2023-05-18T10:32:47;41.50;1.00
14755;DHT22;7469;50.906;6.952;2023-05-18T10:35:17;41.90;1.00
14755;DHT22;7469;50.906;6.952;2023-05-18T10:37:48;42.30;1.00
14755;DHT22;7469;50.906;6.952;2023-05-18T10:40:20;42.60;1.00
14755;DHT22;7469;50.906;6.952;2023-05-18T10:42:51;42.30;1.00
14755;DHT22;7469;50.906;6.952;2023-05-18T10:45:20;42.60;1.00
14755;DHT22;7469;50.906;6.952;2023-05-18T10:47:49;43.10;1.00
14755;DHT22;7469;50.906;6.952;2023-05-18T10:50:21;42.40;1.00
14755;DHT22;7469;50.906;6.952;2023-05-18T10:52:51;41.10;1.00
14755;DHT22;7469;50.906;6.952;2023-05-18T10:55:21;40.00;1.00
14755;DHT22;7469;50.906;6.952;2023-05-18T10:57:54;39.70;1.30
14755;DHT22;7469;50.906;6.952;2023-05-18T11:00:23;39.10;1.10
14755;DHT22;7469;50.906;6.952;2023-05-18T11:02:52;37.80;1.70
14755;DHT22;7469;50.906;6.952;2023-05-18T11:05:24;37.00;2.70
14755;DHT22;7469;50.906;6.952;2023-05-18T11:07:58;36.10;3.20
14755;DHT22;7469;50.906;6.952;2023-05-18T11:10:39;35.10;3.60
14755;DHT22;7469;50.906;6.952;2023-05-18T11:13:08;33.90;4.80
14755;DHT22;7469;50.906;6.952;2023-05-18T11:16:06;32.80;5.60
14755;DHT22;7469;50.906;6.952;2023-05-18T11:18:37;31.80;6.10
14755;DHT22;7469;50.906;6.952;2023-05-18T11:21:18;30.90;6.10
14755;DHT22;7469;50.906;6.952;2023-05-18T11:24:16;29.90;6.80
14755;DHT22;7469;50.906;6.952;2023-05-18T11:26:49;28.90;7.20
14755;DHT22;7469;50.906;6.952;2023-05-18T11:29:19;27.90;7.70
14755;DHT22;7469;50.906;6.952;2023-05-18T11:31:50;27.20;8.20
14755;DHT22;7469;50.906;6.952;2023-05-18T11:34:34;26.60;8.60
14755;DHT22;7469;50.906;6.952;2023-05-18T11:37:06;25.90;9.20
14755;DHT22;7469;50.906;6.952;2023-05-18T11:39:36;25.40;9.60
14755;DHT22;7469;50.906;6.952;2023-05-18T11:42:18;24.90;10.10
14755;DHT22;7469;50.906;6.952;2023-05-18T11:44:51;24.50;10.50
14755;DHT22;7469;50.906;6.952;2023-05-18T11:47:19;24.20;10.90
14755;DHT22;7469;50.906;6.952;2023-05-18T11:49:48;23.90;11.10
14755;DHT22;7469;50.906;6.952;2023-05-18T11:52:19;23.40;11.30
14755;DHT22;7469;50.906;6.952;2023-05-18T11:54:49;23.00;11.70
14755;DHT22;7469;50.906;6.952;2023-05-18T11:57:23;22.80;12.20
14755;DHT22;7469;50.906;6.952;2023-05-18T11:59:54;22.50;12.50
14755;DHT22;7469;50.906;6.952;2023-05-18T12:02:24;22.30;12.80
14755;DHT22;7469;50.906;6.952;2023-05-18T12:04:54;22.00;13.10
14755;DHT22;7469;50.906;6.952;2023-05-18T12:07:22;21.80;13.50
14755;DHT22;7469;50.906;6.952;2023-05-18T12:09:51;21.70;13.70
14755;DHT22;7469;50.906;6.952;2023-05-18T12:12:20;21.60;14.00
14755;DHT22;7469;50.906;6.952;2023-05-18T12:14:53;21.30;13.40
14755;DHT22;7469;50.906;6.952;2023-05-18T12:17:22;21.00;13.70
14755;DHT22;7469;50.906;6.952;2023-05-18T12:19:51;20.70;14.10
14755;DHT22;7469;50.906;6.952;2023-05-18T12:22:19;20.50;14.30
14755;DHT22;7469;50.906;6.952;2023-05-18T12:24:50;20.10;14.30
14755;DHT22;7469;50.906;6.952;2023-05-18T12:27:20;20.00;15.20
14755;DHT22;7469;50.906;6.952;2023-05-18T12:29:53;20.00;15.50
14755;DHT22;7469;50.906;6.952;2023-05-18T12:32:21;19.90;14.60
14755;DHT22;7469;50.906;6.952;2023-05-18T12:34:50;19.70;14.80
14755;DHT22;7469;50.906;6.952;2023-05-18T12:37:18;19.70;15.00
14755;DHT22;7469;50.906;6.952;2023-05-18T12:39:53;19.90;15.00
14755;DHT22;7469;50.906;6.952;2023-05-18T12:42:23;20.10;14.80
14755;DHT22;7469;50.906;6.952;2023-05-18T12:44:51;20.40;14.80
14755;DHT22;7469;50.906;6.952;2023-05-18T12:47:19;20.40;14.50
14755;DHT22;7469;50.906;6.952;2023-05-18T12:49:48;20.60;14.50
14755;DHT22;7469;50.906;6.952;2023-05-18T12:52:16;20.80;14.50
14755;DHT22;7469;50.906;6.952;2023-05-18T12:54:49;21.00;14.50
14755;DHT22;7469;50.906;6.952;2023-05-18T12:57:22;21.20;14.70
14755;DHT22;7469;50.906;6.952;2023-05-18T12:59:53;21.30;14.00
14755;DHT22;7469;50.906;6.952;2023-05-18T13:02:28;21.30;13.70
14755;DHT22;7469;50.906;6.952;2023-05-18T13:05:01;21.20;13.50
14755;DHT22;7469;50.906;6.952;2023-05-18T13:07:29;21.40;14.00
14755;DHT22;7469;50.906;6.952;2023-05-18T13:10:01;21.70;13.60
14755;DHT22;7469;50.906;6.952;2023-05-18T13:12:45;21.90;13.60
14755;DHT22;7469;50.906;6.952;2023-05-18T13:15:16;22.00;13.50
14755;DHT22;7469;50.906;6.952;2023-05-18T13:17:53;21.90;13.50
14755;DHT22;7469;50.906;6.952;2023-05-18T13:20:21;21.90;13.60
14755;DHT22;7469;50.906;6.952;2023-05-18T13:22:49;21.80;13.60
14755;DHT22;7469;50.906;6.952;2023-05-18T13:25:18;21.60;13.80
14755;DHT22;7469;50.906;6.952;2023-05-18T13:27:47;21.40;13.60
14755;DHT22;7469;50.906;6.952;2023-05-18T13:30:17;21.10;13.80
14755;DHT22;7469;50.906;6.952;2023-05-18T13:32:45;21.10;14.20
14755;DHT22;7469;50.906;6.952;2023-05-18T13:35:13;21.10;14.00
14755;DHT22;7469;50.906;6.952;2023-05-18T13:37:41;21.40;14.00
14755;DHT22;7469;50.906;6.952;2023-05-18T13:40:09;21.60;13.50
14755;DHT22;7469;50.906;6.952;2023-05-18T13:42:39;22.00;13.70
14755;DHT22;7469;50.906;6.952;2023-05-18T13:45:10;22.30;12.90
14755;DHT22;7469;50.906;6.952;2023-05-18T13:47:41;22.40;12.50
14755;DHT22;7469;50.906;6.952;2023-05-18T13:50:11;22.50;12.30
14755;DHT22;7469;50.906;6.952;2023-05-18T13:52:39;22.50;11.80
14755;DHT22;7469;50.906;6.952;2023-05-18T13:55:07;22.50;12.10
14755;DHT22;7469;50.906;6.952;2023-05-18T13:57:38;22.50;12.00
14755;DHT22;7469;50.906;6.952;2023-05-18T14:00:08;22.40;11.90
14755;DHT22;7469;50.906;6.952;2023-05-18T14:02:39;22.10;12.50
14755;DHT22;7469;50.906;6.952;2023-05-18T14:05:08;22.00;12.50
14755;DHT22;7469;50.906;6.952;2023-05-18T14:07:37;22.00;12.60
14755;DHT22;7469;50.906;6.952;2023-05-18T14:10:06;22.00;12.40
14755;DHT22;7469;50.906;6.952;2023-05-18T14:12:35;21.90;12.60
14755;DHT22;7469;50.906;6.952;2023-05-18T14:15:04;22.10;12.50
14755;DHT22;7469;50.906;6.952;2023-05-18T14:17:34;22.40;12.30
14755;DHT22;7469;50.906;6.952;2023-05-18T14:20:03;22.70;11.90
14755;DHT22;7469;50.906;6.952;2023-05-18T14:22:32;22.90;12.40
14755;DHT22;7469;50.906;6.952;2023-05-18T14:25:00;23.00;12.70
14755;DHT22;7469;50.906;6.952;2023-05-18T14:27:30;23.00;13.10
14755;DHT22;7469;50.906;6.952;2023-05-18T14:29:58;22.90;13.00
14755;DHT22;7469;50.906;6.952;2023-05-18T14:32:26;23.20;13.10
14755;DHT22;7469;50.906;6.952;2023-05-18T14:34:56;23.50;12.60
14755;DHT22;7469;50.906;6.952;2023-05-18T14:37:24;23.40;12.40
14755;DHT22;7469;50.906;6.952;2023-05-18T14:39:52;23.40;12.60
14755;DHT22;7469;50.906;6.952;2023-05-18T14:42:20;23.20;12.70
14755;DHT22;7469;50.906;6.952;2023-05-18T14:44:48;23.20;12.90
14755;DHT22;7469;50.906;6.952;2023-05-18T14:47:16;22.90;13.70
14755;DHT22;7469;50.906;6.952;2023-05-18T14:49:44;22.70;14.00
14755;DHT22;7469;50.906;6.952;2023-05-18T14:52:13;22.70;14.20
14755;DHT22;7469;50.906;6.952;2023-05-18T14:54:41;22.70;14.30
14755;DHT22;7469;50.906;6.952;2023-05-18T14:57:09;22.90;14.30
14755;DHT22;7469;50.906;6.952;2023-05-18T14:59:38;23.20;14.30
14755;DHT22;7469;50.906;6.952;2023-05-18T15:02:06;23.30;14.10
14755;DHT22;7469;50.906;6.952;2023-05-18T15:04:34;23.30;13.70
14755;DHT22;7469;50.906;6.952;2023-05-18T15:07:03;23.20;14.20
14755;DHT22;7469;50.906;6.952;2023-05-18T15:09:33;23.10;13.60
14755;DHT22;7469;50.906;6.952;2023-05-18T15:12:01;23.00;13.70
14755;DHT22;7469;50.906;6.952;2023-05-18T15:14:29;22.80;14.10
14755;DHT22;7469;50.906;6.952;2023-05-18T15:16:57;22.40;14.60
14755;DHT22;7469;50.906;6.952;2023-05-18T15:19:25;22.10;15.00
14755;DHT22;7469;50.906;6.952;2023-05-18T15:21:53;22.10;14.80
14755;DHT22;7469;50.906;6.952;2023-05-18T15:24:21;22.10;14.80
14755;DHT22;7469;50.906;6.952;2023-05-18T15:26:51;22.20;14.60
14755;DHT22;7469;50.906;6.952;2023-05-18T15:29:19;22.40;14.40
14755;DHT22;7469;50.906;6.952;2023-05-18T15:31:47;22.70;14.30
14755;DHT22;7469;50.906;6.952;2023-05-18T15:34:17;22.90;15.00
14755;DHT22;7469;50.906;6.952;2023-05-18T15:36:45;23.10;15.10
14755;DHT22;7469;50.906;6.952;2023-05-18T15:39:12;23.30;15.30
14755;DHT22;7469;50.906;6.952;2023-05-18T15:41:40;23.30;15.40
14755;DHT22;7469;50.906;6.952;2023-05-18T15:44:10;23.20;15.50
14755;DHT22;7469;50.906;6.952;2023-05-18T15:46:38;23.10;15.70
14755;DHT22;7469;50.906;6.952;2023-05-18T15:49:06;22.90;15.60
14755;DHT22;7469;50.906;6.952;2023-05-18T15:51:34;22.80;15.90
14755;DHT22;7469;50.906;6.952;2023-05-18T15:54:04;22.50;15.90
14755;DHT22;7469;50.906;6.952;2023-05-18T15:56:32;22.00;16.70
14755;DHT22;7469;50.906;6.952;2023-05-18T15:59:00;21.90;17.40
14755;DHT22;7469;50.906;6.952;2023-05-18T16:01:29;22.00;17.30
14755;DHT22;7469;50.906;6.952;2023-05-18T16:03:57;21.80;17.50
14755;DHT22;7469;50.906;6.952;2023-05-18T16:06:25;21.60;17.70
14755;DHT22;7469;50.906;6.952;2023-05-18T16:08:53;21.30;18.60